Time;durP1;ratioP1;P1;durP2;ratioP2;P2;SDS_P1;SDS_P2;PMS_P1;PMS_P2;Temp;Humidity;BMP_temperature;BMP_pressure;BME280_temperature;BME280_humidity;BME280_pressure;Samples;Min_cycle;Max_cycle;Signal;HPM_P1;HPM_P2
2022/11/06 00:00:34;;;;;;;36.90;21.70;;;;;;;9.10;76.72;99137.09;103539;1288;98523;-72
2022/11/06 00:03:03;;;;;;;36.50;22.70;;;;;;;9.12;76.86;99137.71;103627;1274;98037;-70
2022/11/06 00:08:32;;;;;;;35.00;21.50;;;;;;;9.14;76.78;99141.83;103569;1298;98252;-70
2022/11/06 00:11:07;;;;;;;38.30;23.00;;;;;;;9.13;76.75;99143.66;103590;1297;107630;-70
2022/11/06 00:13:34;;;;;;;37.60;23.70;;;;;;;9.14;76.96;99141.67;103580;1297;97890;-70
2022/11/06 00:16:12;;;;;;;35.80;22.60;;;;;;;9.15;76.97;99146.52;103619;1289;98265;-70
2022/11/06 00:18:40;;;;;;;38.30;21.70;;;;;;;9.17;76.95;99140.69;103540;1288;111780;-70
2022/11/06 00:21:11;;;;;;;34.90;21.80;;;;;;;9.17;76.89;99142.35;103654;1290;95245;-71
2022/11/06 00:23:41;;;;;;;36.80;22.50;;;;;;;9.16;76.91;99142.42;103429;1294;107569;-69
2022/11/06 00:26:16;;;;;;;36.10;22.20;;;;;;;9.16;76.94;99144.70;103543;1290;97896;-68
2022/11/06 00:28:45;;;;;;;36.60;23.00;;;;;;;9.17;77.01;99151.36;103582;1288;97854;-68
2022/11/06 00:31:17;;;;;;;33.30;21.10;;;;;;;9.17;76.97;99153.29;103479;1290;112817;-70
2022/11/06 00:33:46;;;;;;;36.70;21.20;;;;;;;9.18;76.97;99155.70;103499;1290;96483;-69
2022/11/06 00:36:17;;;;;;;37.60;22.40;;;;;;;9.17;76.94;99154.49;103608;1291;107707;-69
2022/11/06 00:38:46;;;;;;;34.50;21.70;;;;;;;9.17;76.87;99158.97;103618;1294;97933;-70
2022/11/06 00:41:16;;;;;;;34.80;21.60;;;;;;;9.17;76.97;99156.52;103534;1296;96243;-70
2022/11/06 00:43:53;;;;;;;40.00;24.00;;;;;;;9.18;77.02;99156.41;103595;1297;110761;-69
2022/11/06 00:46:21;;;;;;;37.10;22.20;;;;;;;9.18;76.99;99156.00;103541;1299;97998;-69
2022/11/06 00:48:51;;;;;;;37.30;23.10;;;;;;;9.19;76.94;99153.14;103590;1297;107295;-68
2022/11/06 00:51:23;;;;;;;37.70;22.70;;;;;;;9.17;76.85;99154.67;103589;1294;97886;-69
2022/11/06 00:53:57;;;;;;;35.00;22.10;;;;;;;9.15;76.88;99161.71;103621;1291;97994;-70
2022/11/06 00:56:27;;;;;;;36.50;21.90;;;;;;;9.12;76.96;99156.82;103617;1291;111357;-70
2022/11/06 00:58:59;;;;;;;36.90;22.20;;;;;;;9.12;76.99;99156.66;103605;1290;97876;-70
2022/11/06 01:01:31;;;;;;;34.20;21.60;;;;;;;9.11;77.01;99160.05;103609;1290;107502;-70
2022/11/06 01:04:04;;;;;;;36.30;22.10;;;;;;;9.10;77.07;99160.82;103295;1301;98636;-69
2022/11/06 01:06:36;;;;;;;35.10;21.60;;;;;;;9.09;77.01;99167.44;103475;1293;98024;-70
2022/11/06 01:09:06;;;;;;;34.40;21.90;;;;;;;9.09;77.10;99169.39;103501;1288;111120;-70
2022/11/06 01:11:39;;;;;;;38.80;23.10;;;;;;;9.11;77.17;99159.38;103580;1290;97850;-70
2022/11/06 01:14:27;;;;;;;37.00;20.90;;;;;;;9.11;77.09;99154.41;103361;1297;107496;-70
2022/11/06 01:16:55;;;;;;;36.80;22.60;;;;;;;9.08;77.03;99150.52;103485;1306;96955;-72
2022/11/06 01:19:23;;;;;;;35.60;22.40;;;;;;;9.06;76.99;99155.63;103501;1298;97866;-70
2022/11/06 01:21:52;;;;;;;37.50;22.80;;;;;;;9.04;77.14;99156.63;103536;1292;110874;-71
2022/11/06 01:24:26;;;;;;;39.30;24.60;;;;;;;9.03;77.10;99151.32;103456;1294;98401;-70
2022/11/06 01:26:56;;;;;;;36.30;22.00;;;;;;;9.04;77.14;99149.86;103352;1293;108147;-70
2022/11/06 01:29:44;;;;;;;36.00;22.80;;;;;;;9.04;77.14;99149.02;103370;1287;95536;-70
2022/11/06 01:32:13;;;;;;;40.50;22.90;;;;;;;9.03;77.08;99152.41;103609;1291;97949;-69
2022/11/06 01:34:41;;;;;;;37.90;23.80;;;;;;;9.03;77.02;99156.49;103515;1290;111999;-70
2022/11/06 01:37:08;;;;;;;39.00;23.90;;;;;;;9.01;77.03;99156.59;103557;1298;97890;-70
2022/11/06 01:39:42;;;;;;;42.10;24.80;;;;;;;9.02;77.24;99153.73;103613;1296;107641;-70
2022/11/06 01:42:12;;;;;;;38.60;23.40;;;;;;;9.02;77.22;99153.70;103523;1298;97858;-69
2022/11/06 01:44:41;;;;;;;36.70;23.60;;;;;;;9.02;77.21;99160.42;103588;1294;97863;-68
2022/11/06 01:47:27;;;;;;;37.10;22.80;;;;;;;9.02;77.16;99163.29;103584;1290;111182;-69
2022/11/06 01:50:02;;;;;;;40.60;24.10;;;;;;;9.02;77.23;99159.39;103568;1292;97870;-70
2022/11/06 01:52:32;;;;;;;35.80;22.20;;;;;;;9.04;77.20;99164.39;103623;1290;106578;-70
2022/11/06 01:55:24;;;;;;;36.20;22.10;;;;;;;9.04;77.17;99167.23;103580;1291;97958;-70
2022/11/06 01:57:55;;;;;;;37.60;23.40;;;;;;;9.03;77.30;99163.19;103609;1298;98277;-71
2022/11/06 02:00:23;;;;;;;39.10;23.50;;;;;;;9.03;77.27;99161.96;103549;1289;111149;-70
2022/11/06 02:02:51;;;;;;;38.30;23.20;;;;;;;9.05;77.29;99162.38;103626;1291;99017;-69
2022/11/06 02:05:20;;;;;;;42.50;24.70;;;;;;;9.06;77.23;99170.12;103473;1296;108012;-69
2022/11/06 02:07:50;;;;;;;39.00;23.90;;;;;;;9.05;77.19;99173.67;103577;1296;97880;-69
2022/11/06 02:10:17;;;;;;;37.60;21.80;;;;;;;9.06;77.35;99175.74;103565;1289;95094;-69
2022/11/06 02:13:05;;;;;;;40.80;23.10;;;;;;;9.07;77.35;99173.73;103465;1292;111148;-70
2022/11/06 02:15:47;;;;;;;39.60;23.50;;;;;;;9.08;77.26;99177.23;103374;1291;97681;-69
2022/11/06 02:18:24;;;;;;;38.50;22.10;;;;;;;9.07;77.29;99185.29;103552;1294;106770;-70
2022/11/06 02:21:13;;;;;;;41.80;22.70;;;;;;;9.07;77.38;99182.41;103562;1290;97864;-70
2022/11/06 02:24:02;;;;;;;40.00;22.90;;;;;;;9.07;77.30;99182.38;103603;1291;98255;-72
2022/11/06 02:27:10;;;;;;;36.10;21.20;;;;;;;9.07;77.34;99181.88;103560;1288;111187;-69
2022/11/06 02:29:50;;;;;;;35.80;21.30;;;;;;;9.07;77.36;99179.76;103535;1296;97873;-70
2022/11/06 02:32:28;;;;;;;36.10;21.70;;;;;;;9.08;77.41;99183.39;103608;1298;107917;-69
2022/11/06 02:35:00;;;;;;;39.90;22.90;;;;;;;9.06;77.13;99184.21;103589;1297;97856;-70
2022/11/06 02:37:35;;;;;;;37.00;20.90;;;;;;;9.03;77.24;99186.02;103501;1290;97877;-69
2022/11/06 02:40:08;;;;;;;36.10;21.50;;;;;;;9.01;77.25;99183.33;103525;1298;111217;-70
2022/11/06 02:42:43;;;;;;;35.90;21.40;;;;;;;8.98;77.27;99189.39;103493;1297;97851;-70
2022/11/06 02:45:16;;;;;;;36.10;21.50;;;;;;;8.94;77.23;99189.79;103477;1281;107551;-70
2022/11/06 02:47:48;;;;;;;39.50;21.80;;;;;;;8.91;77.33;99189.77;103510;1287;97972;-70
2022/11/06 02:50:31;;;;;;;36.90;22.00;;;;;;;8.91;77.31;99189.45;103623;1288;98536;-71
2022/11/06 02:53:06;;;;;;;36.50;20.30;;;;;;;8.89;77.37;99190.10;103508;1295;111899;-71
2022/11/06 02:55:46;;;;;;;35.50;21.20;;;;;;;8.87;77.36;99190.55;103629;1294;97931;-69
2022/11/06 02:58:23;;;;;;;32.30;20.20;;;;;;;8.84;77.40;99195.19;103587;1291;107310;-70
2022/11/06 03:01:02;;;;;;;34.80;20.00;;;;;;;8.79;77.38;99197.42;103521;1284;97934;-71
2022/11/06 03:03:34;;;;;;;34.50;20.00;;;;;;;8.79;77.48;99202.23;103573;1290;98808;-71
2022/11/06 03:06:11;;;;;;;37.00;20.30;;;;;;;8.79;77.55;99201.48;103622;1289;110836;-70
2022/11/06 03:09:05;;;;;;;34.70;20.00;;;;;;;8.80;77.58;99204.29;103599;1298;97796;-69
2022/11/06 03:11:37;;;;;;;;;;;;;;;8.82;77.51;99208.81;103588;1289;106439;-69
2022/11/06 03:14:37;;;;;;;34.80;19.70;;;;;;;8.79;77.60;99210.67;103634;1288;98317;-69
2022/11/06 03:17:14;;;;;;;42.10;26.20;;;;;;;8.80;77.52;99213.66;103595;1298;97978;-71
2022/11/06 03:19:53;;;;;;;35.70;20.20;;;;;;;8.81;77.55;99221.56;103549;1298;111221;-70
2022/11/06 03:22:43;;;;;;;33.20;20.50;;;;;;;8.81;77.49;99222.64;103411;1298;98028;-71
2022/11/06 03:25:16;;;;;;;35.20;20.00;;;;;;;8.78;77.56;99224.91;103475;1297;107929;-70
2022/11/06 03:28:03;;;;;;;;;;;;;;;8.77;77.60;99223.38;103567;1281;97857;-70
2022/11/06 03:30:40;;;;;;;35.50;20.80;;;;;;;8.75;77.75;99221.07;103405;1289;97864;-69
2022/11/06 03:33:36;;;;;;;32.40;19.80;;;;;;;8.76;77.56;99226.11;103459;1290;110162;-71
2022/11/06 03:36:10;;;;;;;32.50;19.20;;;;;;;8.75;77.57;99231.10;103481;1296;98304;-71
2022/11/06 03:38:55;;;;;;;34.00;19.80;;;;;;;8.75;77.61;99234.15;103506;1291;107486;-71
2022/11/06 03:41:48;;;;;;;34.60;20.70;;;;;;;8.75;77.53;99242.60;103490;1290;97952;-71
2022/11/06 03:44:21;;;;;;;34.50;20.00;;;;;;;8.76;77.70;99247.48;103525;1297;97940;-72
2022/11/06 03:46:58;;;;;;;33.60;18.80;;;;;;;8.77;77.68;99247.56;103449;1290;111623;-70
2022/11/06 03:49:34;;;;;;;33.50;20.10;;;;;;;8.78;77.53;99246.33;103580;1288;97906;-70
2022/11/06 03:52:15;;;;;;;31.60;19.30;;;;;;;8.77;77.59;99245.68;103565;1298;107295;-70
2022/11/06 03:54:52;;;;;;;37.70;20.70;;;;;;;8.78;77.77;99245.91;103537;1298;96201;-68
2022/11/06 03:57:28;;;;;;;33.70;19.00;;;;;;;8.80;77.69;99247.59;103427;1297;97945;-70
2022/11/06 04:00:00;;;;;;;31.20;18.20;;;;;;;8.81;77.67;99250.39;103580;1290;110876;-70
2022/11/06 04:02:32;;;;;;;32.40;18.70;;;;;;;8.83;77.81;99249.69;103569;1291;97883;-69
2022/11/06 04:05:08;;;;;;;32.40;18.00;;;;;;;8.85;77.80;99252.93;103590;1295;107493;-70
2022/11/06 04:13:56;;;;;;;30.40;16.60;;;;;;;8.85;77.59;99251.04;103406;1296;97874;-69
2022/11/06 04:16:23;;;;;;;27.20;16.00;;;;;;;8.81;77.76;99247.34;103551;1297;96648;-69
2022/11/06 04:18:51;;;;;;;26.90;14.70;;;;;;;8.81;77.74;99254.09;103549;1298;107681;-70
2022/11/06 04:21:42;;;;;;;27.40;15.50;;;;;;;8.80;77.73;99256.48;103437;1297;97917;-69
2022/11/06 04:27:28;;;;;;;26.20;14.20;;;;;;;8.78;77.75;99264.50;103547;1295;110213;-69
2022/11/06 04:30:08;;;;;;;28.40;15.10;;;;;;;8.77;77.79;99262.99;103503;1298;97886;-69
2022/11/06 04:32:42;;;;;;;27.40;14.80;;;;;;;8.76;77.75;99261.63;103480;1289;106966;-69
2022/11/06 04:35:31;;;;;;;27.50;16.10;;;;;;;8.75;77.74;99260.13;103567;1298;97865;-69
2022/11/06 04:38:26;;;;;;;26.60;14.20;;;;;;;8.75;77.85;99254.31;103566;1290;96496;-69
2022/11/06 04:41:11;;;;;;;27.00;14.20;;;;;;;8.74;77.81;99254.16;103238;1297;111991;-70
2022/11/06 04:43:57;;;;;;;24.30;13.20;;;;;;;8.73;77.82;99257.42;103448;1288;178108;-71
2022/11/06 04:46:32;;;;;;;24.50;13.90;;;;;;;8.74;77.85;99260.18;103555;1298;107404;-71
2022/11/06 04:49:05;;;;;;;27.60;14.30;;;;;;;8.75;77.80;99263.64;103542;1296;98121;-68
2022/11/06 04:51:37;;;;;;;26.30;14.20;;;;;;;8.73;77.88;99261.81;103494;1291;97950;-70
2022/11/06 04:54:08;;;;;;;27.20;14.70;;;;;;;8.73;77.95;99259.35;103539;1299;111094;-70
2022/11/06 04:56:37;;;;;;;26.10;14.00;;;;;;;8.73;77.91;99263.61;103549;1292;97876;-70
2022/11/06 04:59:16;;;;;;;28.00;15.40;;;;;;;8.72;77.81;99260.86;103586;1290;107021;-69
2022/11/06 05:01:45;;;;;;;30.30;17.30;;;;;;;8.71;77.85;99267.23;103548;1296;97976;-69
2022/11/06 05:04:14;;;;;;;30.90;17.40;;;;;;;8.71;77.86;99270.96;103578;1281;98487;-68
2022/11/06 05:06:43;;;;;;;28.70;15.40;;;;;;;8.72;77.91;99272.49;103566;1298;112178;-70
2022/11/06 05:09:11;;;;;;;32.50;15.30;;;;;;;8.73;77.84;99268.05;103415;1297;97785;-70
2022/11/06 05:11:39;;;;;;;30.50;15.40;;;;;;;8.73;77.94;99270.53;103562;1291;107472;-71
2022/11/06 05:14:07;;;;;;;28.10;15.30;;;;;;;8.74;77.96;99271.34;103559;1293;98299;-69
2022/11/06 05:16:35;;;;;;;30.00;16.10;;;;;;;8.75;77.96;99273.55;103522;1298;97977;-70
2022/11/06 05:19:04;;;;;;;28.80;16.00;;;;;;;8.76;77.85;99273.86;103410;1299;110666;-69
2022/11/06 05:24:18;;;;;;;28.80;14.70;;;;;;;8.74;77.95;99274.83;103520;1295;107535;-70
2022/11/06 05:26:46;;;;;;;28.00;15.80;;;;;;;8.75;77.95;99274.14;103529;1301;98448;-71
2022/11/06 05:29:14;;;;;;;28.90;16.20;;;;;;;8.74;77.87;99277.17;103595;1294;97799;-69
2022/11/06 05:31:42;;;;;;;27.30;15.10;;;;;;;8.72;77.93;99278.17;103517;1290;111304;-70
2022/11/06 05:34:10;;;;;;;26.70;14.30;;;;;;;8.71;77.97;99281.25;103610;1294;99118;-70
2022/11/06 05:36:38;;;;;;;30.60;15.20;;;;;;;8.70;77.84;99279.73;103620;1287;106925;-70
2022/11/06 05:39:06;;;;;;;28.50;14.30;;;;;;;8.68;77.97;99279.43;103473;1297;97897;-70
2022/11/06 05:41:33;;;;;;;29.00;15.00;;;;;;;8.69;77.88;99279.26;103403;1296;97978;-69
2022/11/06 05:44:01;;;;;;;26.30;13.60;;;;;;;8.68;78.01;99284.26;103535;1297;111253;-69
2022/11/06 05:46:31;;;;;;;25.90;13.00;;;;;;;8.69;78.09;99286.85;103609;1282;97837;-69
2022/11/06 05:49:17;;;;;;;26.10;13.30;;;;;;;8.71;78.23;99293.59;103590;1298;106502;-69
2022/11/06 05:51:46;;;;;;;25.50;13.50;;;;;;;8.73;78.13;99291.35;103591;1295;97883;-70
2022/11/06 05:54:15;;;;;;;25.60;13.50;;;;;;;8.75;78.26;99297.42;103635;1290;97869;-69
2022/11/06 05:56:43;;;;;;;28.90;14.10;;;;;;;8.77;78.18;99309.15;103561;1287;109813;-70
2022/11/06 05:59:10;;;;;;;26.70;13.40;;;;;;;8.77;78.14;99309.66;103577;1295;97907;-70
2022/11/06 06:01:38;;;;;;;25.40;13.20;;;;;;;8.79;78.07;99315.22;103539;1291;107473;-70
2022/11/06 06:04:06;;;;;;;31.20;15.80;;;;;;;8.79;78.10;99317.52;103564;1290;97922;-70
2022/11/06 06:06:36;;;;;;;29.10;14.90;;;;;;;8.80;78.14;99322.23;103563;1289;98406;-70
2022/11/06 06:09:04;;;;;;;27.60;14.00;;;;;;;8.81;78.21;99323.43;103513;1297;110983;-71
2022/11/06 06:11:32;;;;;;;31.80;15.70;;;;;;;8.82;78.22;99327.24;103545;1298;98070;-69
2022/11/06 06:14:00;;;;;;;31.10;15.50;;;;;;;8.82;78.11;99327.95;103564;1298;107563;-72
2022/11/06 06:16:30;;;;;;;35.30;18.10;;;;;;;8.85;78.12;99330.61;103577;1291;97966;-70
2022/11/06 06:18:57;;;;;;;35.90;18.50;;;;;;;8.83;78.15;99333.89;103530;1296;97925;-70
2022/11/06 06:21:25;;;;;;;33.50;17.60;;;;;;;8.83;78.13;99339.58;103443;1294;110729;-70
2022/11/06 06:23:53;;;;;;;31.60;16.30;;;;;;;8.84;78.18;99339.50;103538;1296;97863;-70
2022/11/06 06:26:21;;;;;;;32.70;16.30;;;;;;;8.84;78.10;99342.48;103538;1296;107402;-70
2022/11/06 06:28:48;;;;;;;36.10;16.50;;;;;;;8.84;78.08;99349.05;103466;1297;97913;-70
2022/11/06 06:31:16;;;;;;;29.60;15.20;;;;;;;8.86;78.27;99349.45;103581;1289;97760;-69
2022/11/06 06:33:44;;;;;;;29.10;14.70;;;;;;;8.87;78.16;99352.04;103558;1291;111161;-71
2022/11/06 06:36:12;;;;;;;30.60;15.00;;;;;;;8.87;78.22;99354.36;103552;1293;97894;-69
2022/11/06 06:38:40;;;;;;;30.10;14.80;;;;;;;8.87;78.25;99357.01;103550;1305;107159;-69
2022/11/06 06:41:09;;;;;;;32.50;15.40;;;;;;;8.87;78.16;99360.16;103490;1297;97971;-69
2022/11/06 06:43:37;;;;;;;28.80;14.70;;;;;;;8.88;78.23;99362.60;103543;1291;95172;-71
2022/11/06 06:46:06;;;;;;;30.00;15.70;;;;;;;8.89;78.27;99365.16;103570;1299;111186;-70
2022/11/06 06:48:34;;;;;;;29.10;15.60;;;;;;;8.90;78.19;99363.15;103590;1293;98007;-70
2022/11/06 06:51:04;;;;;;;28.70;16.70;;;;;;;8.92;78.28;99363.09;103609;1298;106935;-69
2022/11/06 06:53:32;;;;;;;29.20;14.50;;;;;;;8.94;78.29;99364.15;103493;1297;95276;-71
2022/11/06 06:56:01;;;;;;;28.20;14.90;;;;;;;8.97;78.33;99362.56;103578;1297;97839;-70
2022/11/06 06:58:30;;;;;;;28.40;14.50;;;;;;;8.98;78.22;99362.52;103369;1298;111149;-70
2022/11/06 07:01:01;;;;;;;30.20;15.50;;;;;;;8.97;78.19;99369.80;103583;1297;97896;-69
2022/11/06 07:03:30;;;;;;;30.90;16.40;;;;;;;8.98;78.22;99366.38;103503;1289;107540;-71
2022/11/06 07:05:57;;;;;;;27.80;15.20;;;;;;;8.99;78.23;99366.89;103617;1297;97940;-70
2022/11/06 07:08:27;;;;;;;26.40;13.70;;;;;;;9.00;78.26;99369.80;103583;1288;97876;-70
2022/11/06 07:11:03;;;;;;;30.50;16.60;;;;;;;9.03;78.31;99368.23;103592;1298;111186;-70
2022/11/06 07:13:31;;;;;;;33.30;16.00;;;;;;;9.05;78.21;99366.67;103574;1294;97855;-70
2022/11/06 07:16:05;;;;;;;30.00;15.80;;;;;;;9.06;78.28;99367.84;103543;1297;106425;-72
2022/11/06 07:18:36;;;;;;;30.60;15.30;;;;;;;9.09;78.38;99362.38;103607;1299;97973;-71
2022/11/06 07:21:06;;;;;;;30.50;15.80;;;;;;;9.13;78.32;99368.00;103549;1296;97860;-70
2022/11/06 07:23:35;;;;;;;29.80;15.80;;;;;;;9.17;78.33;99366.51;103584;1293;111071;-70
2022/11/06 07:26:04;;;;;;;30.30;16.40;;;;;;;9.19;78.35;99369.33;103601;1295;97909;-71
2022/11/06 07:28:32;;;;;;;31.40;17.60;;;;;;;9.22;78.26;99372.14;103584;1287;107504;-71
2022/11/06 07:31:04;;;;;;;30.10;16.00;;;;;;;9.25;78.31;99366.51;103572;1297;97871;-72
2022/11/06 07:33:34;;;;;;;31.00;16.20;;;;;;;9.29;78.48;99360.65;103589;1293;97996;-71
2022/11/06 07:36:05;;;;;;;29.10;16.00;;;;;;;9.34;78.45;99362.93;103549;1294;110571;-70
2022/11/06 07:38:35;;;;;;;27.50;14.40;;;;;;;9.38;78.41;99363.38;103535;1291;97870;-71
2022/11/06 07:41:06;;;;;;;28.50;15.40;;;;;;;9.40;78.39;99366.13;103523;1288;107295;-70
2022/11/06 07:43:35;;;;;;;27.70;13.90;;;;;;;9.39;78.33;99365.46;103451;1294;97887;-72
2022/11/06 07:46:07;;;;;;;27.10;15.10;;;;;;;9.39;78.32;99361.94;103416;1295;97852;-70
2022/11/06 07:48:35;;;;;;;29.40;15.90;;;;;;;9.40;78.42;99360.83;103363;1299;111023;-70
2022/11/06 07:51:05;;;;;;;27.00;14.30;;;;;;;9.42;78.38;99361.24;103388;1297;95536;-71
2022/11/06 07:53:34;;;;;;;26.70;15.10;;;;;;;9.43;78.49;99360.84;105287;1280;107453;-71
2022/11/06 07:56:02;;;;;;;27.60;15.00;;;;;;;9.45;78.45;99365.09;103958;1295;97867;-70
2022/11/06 07:58:30;;;;;;;29.80;15.50;;;;;;;9.46;78.33;99364.35;103399;1304;98401;-70
2022/11/06 08:00:58;;;;;;;29.90;15.90;;;;;;;9.47;78.34;99367.30;103507;1291;111181;-70
2022/11/06 08:03:28;;;;;;;29.30;15.70;;;;;;;9.47;78.36;99372.09;103545;1297;97856;-73
2022/11/06 08:05:58;;;;;;;27.60;15.60;;;;;;;9.49;78.38;99374.25;103498;1299;107258;-72
2022/11/06 08:08:27;;;;;;;27.90;16.20;;;;;;;9.50;78.36;99373.83;103460;1290;97848;-71
2022/11/06 08:11:00;;;;;;;28.60;14.80;;;;;;;9.49;78.32;99378.31;103513;1297;97901;-71
2022/11/06 08:13:28;;;;;;;30.00;15.90;;;;;;;9.49;78.41;99375.98;103547;1288;111226;-72
2022/11/06 08:15:55;;;;;;;31.60;17.00;;;;;;;9.50;78.33;99372.73;103567;1294;97840;-70
2022/11/06 08:18:23;;;;;;;34.10;17.30;;;;;;;9.49;78.33;99372.48;103448;1297;107536;-70
2022/11/06 08:20:53;;;;;;;30.20;16.20;;;;;;;9.48;78.46;99373.08;103473;1295;97962;-69
2022/11/06 08:23:21;;;;;;;34.10;17.60;;;;;;;9.49;78.37;99371.42;103341;1298;97974;-73
2022/11/06 08:25:56;;;;;;;30.30;15.30;;;;;;;9.48;78.34;99372.70;103487;1293;110012;-71
2022/11/06 08:28:25;;;;;;;27.50;16.50;;;;;;;9.48;78.50;99373.76;103809;1295;98609;-70
2022/11/06 08:30:54;;;;;;;31.40;17.40;;;;;;;9.48;78.41;99370.56;103568;1295;105751;-71
2022/11/06 08:33:25;;;;;;;30.70;16.20;;;;;;;9.50;78.45;99369.42;103428;1297;97744;-71
2022/11/06 08:35:52;;;;;;;33.70;17.00;;;;;;;9.51;78.45;99370.36;103536;1298;97990;-70
2022/11/06 08:38:20;;;;;;;31.00;16.00;;;;;;;9.50;78.35;99372.38;103568;1291;111226;-70
2022/11/06 08:40:48;;;;;;;33.20;18.00;;;;;;;9.51;78.39;99374.10;103577;1290;95767;-75
2022/11/06 08:43:23;;;;;;;28.60;16.90;;;;;;;9.51;78.44;99373.42;103546;1290;107285;-72
2022/11/06 08:45:52;;;;;;;33.10;16.40;;;;;;;9.51;78.47;99377.12;103554;1299;97907;-70
2022/11/06 08:48:20;;;;;;;32.70;17.80;;;;;;;9.53;78.52;99373.45;103596;1298;97900;-72
2022/11/06 08:50:48;;;;;;;31.30;17.80;;;;;;;9.56;78.47;99377.91;103596;1294;110779;-70
2022/11/06 08:53:15;;;;;;;34.20;18.20;;;;;;;9.56;78.49;99377.89;103540;1298;95158;-69
2022/11/06 08:55:45;;;;;;;30.30;16.10;;;;;;;9.58;78.50;99378.84;103509;1291;107488;-70
2022/11/06 08:58:13;;;;;;;30.40;16.60;;;;;;;9.57;78.38;99377.45;103532;1297;95127;-70
2022/11/06 09:00:41;;;;;;;30.40;16.70;;;;;;;9.58;78.45;99376.69;103612;1299;96570;-70
2022/11/06 09:03:13;;;;;;;31.30;16.20;;;;;;;9.59;78.43;99379.10;103402;1292;111134;-69
2022/11/06 09:05:43;;;;;;;32.50;17.10;;;;;;;9.60;78.46;99377.41;103546;1289;97962;-71
2022/11/06 09:08:12;;;;;;;30.10;16.60;;;;;;;9.60;78.45;99375.16;103572;1290;106473;-69
2022/11/06 09:10:42;;;;;;;29.40;16.20;;;;;;;9.60;78.36;99374.43;103605;1300;97956;-71
2022/11/06 09:13:11;;;;;;;31.60;17.70;;;;;;;9.60;78.40;99377.25;103457;1298;97927;-72
2022/11/06 09:15:40;;;;;;;30.90;17.50;;;;;;;9.60;78.46;99376.70;103614;1296;111125;-70
2022/11/06 09:18:10;;;;;;;32.90;17.70;;;;;;;9.60;78.43;99376.72;103508;1297;97870;-69
2022/11/06 09:20:37;;;;;;;30.60;17.10;;;;;;;9.58;78.31;99377.90;103537;1301;108764;-70
2022/11/06 09:23:08;;;;;;;33.40;17.70;;;;;;;9.60;78.38;99380.98;103541;1295;97824;-69
2022/11/06 09:25:36;;;;;;;29.50;16.80;;;;;;;9.62;78.44;99381.92;103548;1299;97966;-70
2022/11/06 09:28:04;;;;;;;28.70;16.20;;;;;;;9.64;78.49;99384.08;103518;1291;111126;-69
2022/11/06 09:30:31;;;;;;;27.70;15.40;;;;;;;9.66;78.42;99384.87;103617;1295;97810;-70
2022/11/06 09:33:02;;;;;;;30.20;16.80;;;;;;;9.67;78.36;99383.19;103635;1292;106632;-69
2022/11/06 09:35:33;;;;;;;33.00;17.40;;;;;;;9.70;78.44;99385.15;103560;1295;99054;-70
2022/11/06 09:38:03;;;;;;;31.80;16.70;;;;;;;9.71;78.38;99380.47;103528;1297;97932;-70
2022/11/06 09:40:40;;;;;;;29.20;16.60;;;;;;;9.74;78.40;99379.77;103490;1298;111601;-70
2022/11/06 09:43:48;;;;;;;30.20;17.00;;;;;;;9.77;78.44;99379.23;103469;1298;95241;-70
2022/11/06 09:46:38;;;;;;;28.30;16.50;;;;;;;9.77;78.46;99373.35;103510;1297;108349;-69
2022/11/06 09:49:33;;;;;;;27.00;15.30;;;;;;;9.79;78.41;99373.23;103532;1298;97951;-70
2022/11/06 09:52:05;;;;;;;27.30;15.40;;;;;;;9.81;78.43;99373.24;103492;1287;95243;-70
2022/11/06 09:54:42;;;;;;;27.00;14.60;;;;;;;9.85;78.41;99373.58;103558;1297;111116;-70
2022/11/06 09:57:33;;;;;;;27.20;15.00;;;;;;;9.88;78.41;99377.06;103559;1290;97841;-71
2022/11/06 10:00:04;;;;;;;31.40;16.10;;;;;;;9.91;78.41;99380.95;103555;1289;107463;-72
2022/11/06 10:02:49;;;;;;;29.10;15.80;;;;;;;9.93;78.40;99380.45;103461;1299;98038;-71
2022/11/06 10:05:42;;;;;;;26.70;15.20;;;;;;;9.95;78.38;99384.39;103555;1295;97826;-69
2022/11/06 10:08:23;;;;;;;29.60;15.20;;;;;;;9.96;78.34;99383.13;103552;1295;111702;-69
2022/11/06 10:11:03;;;;;;;28.80;13.60;;;;;;;9.98;78.51;99383.52;103684;1297;97663;-69
2022/11/06 10:13:45;;;;;;;28.60;15.80;;;;;;;10.02;78.41;99380.65;103500;1289;107501;-70
2022/11/06 10:16:37;;;;;;;28.00;15.50;;;;;;;10.04;78.41;99381.16;103565;1291;98002;-70
2022/11/06 10:19:29;;;;;;;26.40;14.40;;;;;;;10.05;78.44;99385.51;103600;1298;97834;-70
2022/11/06 10:22:06;;;;;;;25.00;13.50;;;;;;;10.05;78.37;99380.61;103499;1298;110993;-70
2022/11/06 10:24:53;;;;;;;26.70;13.60;;;;;;;10.03;78.38;99382.09;103400;1291;96398;-71
2022/11/06 10:27:33;;;;;;;24.20;13.50;;;;;;;10.05;78.41;99380.07;103413;1294;108693;-70
2022/11/06 10:30:18;;;;;;;25.40;14.10;;;;;;;10.06;78.31;99375.23;103569;1298;97983;-68
2022/11/06 10:33:14;;;;;;;26.80;14.20;;;;;;;10.06;78.33;99369.56;103595;1290;97864;-70
2022/11/06 10:35:59;;;;;;;26.10;14.50;;;;;;;10.04;78.30;99367.89;103573;1298;110972;-71
2022/11/06 10:38:33;;;;;;;25.10;13.90;;;;;;;10.03;78.30;99364.77;103592;1289;97875;-73
2022/11/06 10:41:01;;;;;;;25.70;13.80;;;;;;;10.05;78.37;99360.27;103498;1296;106031;-73
2022/11/06 10:43:39;;;;;;;24.30;13.90;;;;;;;10.07;78.30;99354.58;103344;1292;97866;-74
2022/11/06 10:46:07;;;;;;;28.20;15.10;;;;;;;10.09;78.41;99351.78;103599;1295;95994;-70
2022/11/06 10:48:44;;;;;;;30.10;15.10;;;;;;;10.11;78.38;99349.02;103402;1295;111058;-70
2022/11/06 10:51:12;;;;;;;27.00;14.90;;;;;;;10.13;78.39;99345.12;103594;1297;97899;-70
2022/11/06 10:54:06;;;;;;;25.60;13.90;;;;;;;10.16;78.38;99344.59;103528;1290;107590;-71
2022/11/06 10:56:42;;;;;;;;;;;;;;;10.19;78.39;99339.09;103603;1290;97860;-70
2022/11/06 10:59:12;;;;;;;26.00;14.30;;;;;;;10.19;78.42;99338.36;103403;1297;97925;-71
2022/11/06 11:01:39;;;;;;;27.40;14.60;;;;;;;10.22;78.43;99336.40;103489;1297;111057;-71
2022/11/06 11:04:08;;;;;;;91.70;76.00;;;;;;;10.24;78.27;99333.63;103617;1290;96519;-75
2022/11/06 11:06:40;;;;;;;59.90;42.70;;;;;;;10.26;78.36;99329.60;103611;1297;107470;-70
2022/11/06 11:09:25;;;;;;;28.00;17.10;;;;;;;10.26;78.19;99329.94;103542;1298;97952;-70
2022/11/06 11:11:54;;;;;;;27.30;14.60;;;;;;;10.27;78.25;99326.32;103614;1289;98279;-68
2022/11/06 11:14:25;;;;;;;30.00;15.20;;;;;;;10.30;78.24;99324.17;103556;1290;111738;-69
2022/11/06 11:16:55;;;;;;;25.10;14.10;;;;;;;10.33;78.23;99319.04;103617;1297;97957;-69
2022/11/06 11:19:33;;;;;;;24.80;14.00;;;;;;;10.35;78.34;99318.53;103545;1292;107466;-71
2022/11/06 11:22:15;;;;;;;27.80;14.80;;;;;;;10.36;78.28;99309.58;103586;1287;97899;-71
2022/11/06 11:25:02;;;;;;;26.00;14.90;;;;;;;10.38;78.30;99311.25;103602;1298;97986;-74
2022/11/06 11:27:44;;;;;;;29.80;17.30;;;;;;;10.39;78.14;99306.41;103535;1291;110732;-73
2022/11/06 11:30:26;;;;;;;29.50;16.40;;;;;;;10.36;78.20;99304.27;103531;1291;97975;-72
2022/11/06 11:32:56;;;;;;;30.40;17.30;;;;;;;10.38;78.22;99302.54;103497;1297;107454;-72
2022/11/06 11:35:28;;;;;;;30.80;17.80;;;;;;;10.39;78.26;99303.54;103596;1288;97831;-71
2022/11/06 11:38:07;;;;;;;32.00;18.30;;;;;;;10.40;78.24;99304.19;103643;1296;96928;-70
2022/11/06 11:40:38;;;;;;;31.20;18.90;;;;;;;10.41;78.22;99302.15;103460;1291;111159;-69
2022/11/06 11:43:25;;;;;;;32.70;19.00;;;;;;;10.40;78.14;99297.66;103524;1294;95205;-70
2022/11/06 11:46:22;;;;;;;76.30;54.10;;;;;;;10.41;78.12;99301.34;103504;1297;107478;-72
2022/11/06 11:48:54;;;;;;;62.60;42.00;;;;;;;10.41;78.08;99299.91;103423;1291;95212;-74
2022/11/06 11:51:32;;;;;;;31.00;19.00;;;;;;;10.42;78.11;99298.20;103472;1291;96246;-71
2022/11/06 11:54:18;;;;;;;31.30;17.30;;;;;;;10.44;78.23;99296.50;103542;1289;111102;-73
2022/11/06 11:56:56;;;;;;;29.20;14.80;;;;;;;10.44;78.23;99297.36;103564;1291;95160;-74
2022/11/06 11:59:50;;;;;;;29.00;15.80;;;;;;;10.43;78.16;99298.00;103447;1299;107323;-71